createdAt,value
2019-04-22T00:00:00.986Z,47.40
2019-04-22T00:02:40.074Z,47.07
2019-04-22T00:05:14.357Z,46.60
2019-04-22T00:08:03.756Z,46.77
2019-04-22T00:10:39.486Z,45.87
2019-04-22T00:13:26.179Z,47.13
2019-04-22T00:15:32.635Z,47.17
2019-04-22T00:18:17.400Z,46.87
2019-04-22T00:20:43.975Z,46.80
2019-04-22T00:23:16.967Z,44.47
2019-04-22T00:25:50.761Z,45.87
2019-04-22T00:28:19.905Z,46.50
2019-04-22T00:30:47.987Z,45.43
2019-04-22T00:33:24.512Z,45.67
2019-04-22T00:35:51.130Z,46.50
2019-04-22T00:38:38.697Z,46.30
2019-04-22T00:41:04.337Z,45.10
2019-04-22T00:43:32.480Z,46.43
2019-04-22T00:45:56.252Z,45.90
2019-04-22T00:48:57.676Z,46.50
2019-04-22T00:51:10.869Z,46.97
2019-04-22T00:53:35.293Z,45.33
2019-04-22T00:56:11.087Z,45.73
2019-04-22T00:58:48.391Z,46.13
2019-04-22T01:04:00.817Z,45.27
2019-04-22T01:06:23.602Z,45.53
2019-04-22T01:13:55.278Z,46.33
2019-04-22T01:16:28.328Z,47.60
2019-04-22T01:19:00.578Z,46.27
2019-04-22T01:21:36.879Z,46.93
2019-04-22T01:24:02.794Z,46.30
2019-04-22T01:26:29.019Z,45.03
2019-04-22T01:29:00.882Z,46.50
2019-04-22T01:31:25.946Z,46.13
2019-04-22T01:34:10.304Z,46.10
2019-04-22T01:36:51.743Z,44.97
2019-04-22T01:39:23.309Z,45.10
2019-04-22T01:42:03.900Z,46.37
2019-04-22T01:44:33.345Z,44.93
2019-04-22T01:46:58.757Z,45.50
2019-04-22T01:52:05.091Z,45.57
2019-04-22T01:54:43.205Z,45.77
2019-04-22T01:57:04.939Z,45.53
2019-04-22T01:59:35.532Z,45.40
2019-04-22T02:02:16.312Z,44.97
2019-04-22T02:04:48.053Z,45.43
2019-04-22T02:07:16.994Z,45.60
2019-04-22T02:09:49.511Z,45.47
2019-04-22T02:12:19.829Z,44.37
2019-04-22T02:14:52.239Z,45.20
2019-04-22T02:17:26.475Z,43.97
2019-04-22T02:22:42.844Z,44.47
2019-04-22T02:24:58.871Z,44.43
2019-04-22T02:27:35.232Z,44.63
2019-04-22T02:29:57.969Z,44.87
2019-04-22T02:33:01.927Z,44.50
2019-04-22T02:37:54.869Z,44.17
2019-04-22T02:42:48.214Z,45.40
2019-04-22T02:45:23.279Z,45.33
2019-04-22T02:47:42.408Z,44.23
2019-04-22T02:50:19.799Z,45.83
2019-04-22T02:52:43.322Z,45.53
2019-04-22T02:55:41.310Z,45.50
2019-04-22T02:57:47.104Z,45.73
2019-04-22T03:10:37.978Z,45.17
2019-04-22T03:13:00.094Z,44.33
2019-04-22T03:15:32.372Z,43.90
2019-04-22T03:20:42.741Z,44.70
2019-04-22T03:26:00.505Z,44.93
2019-04-22T03:28:18.697Z,45.37
2019-04-22T03:31:06.607Z,44.70
2019-04-22T03:33:43.931Z,45.87
2019-04-22T03:36:25.890Z,45.37
2019-04-22T03:38:29.420Z,45.97
2019-04-22T03:41:03.599Z,45.07
2019-04-22T03:43:35.950Z,45.17
2019-04-22T03:45:46.606Z,45.30
2019-04-22T03:48:26.176Z,44.43
2019-04-22T03:51:08.767Z,44.20
2019-04-22T03:53:33.415Z,43.70
2019-04-22T03:56:32.592Z,46.07
2019-04-22T03:58:45.457Z,45.17
2019-04-22T04:01:21.884Z,45.73
2019-04-22T04:03:40.504Z,44.93
2019-04-22T04:06:06.154Z,44.90
2019-04-22T04:11:18.211Z,45.33
2019-04-22T04:16:19.627Z,44.07
2019-04-22T04:18:56.176Z,44.03
2019-04-22T04:24:23.323Z,44.43
2019-04-22T04:26:38.726Z,44.23
2019-04-22T04:29:17.157Z,43.80
2019-04-22T04:32:31.124Z,44.23
2019-04-22T04:39:00.943Z,44.67
2019-04-22T04:41:43.340Z,44.33
2019-04-22T04:56:40.336Z,45.43
2019-04-22T04:59:30.527Z,44.87
2019-04-22T05:01:49.009Z,45.90
2019-04-22T05:04:26.416Z,45.77
2019-04-22T05:06:52.147Z,45.63
2019-04-22T05:09:22.430Z,44.83
2019-04-22T05:14:19.245Z,45.20
2019-04-22T05:19:20.849Z,46.30
2019-04-22T05:21:56.635Z,46.23
2019-04-22T05:24:38.360Z,46.23
2019-04-22T05:26:58.687Z,45.80
2019-04-22T05:29:26.636Z,44.27
2019-04-22T05:31:56.833Z,45.77
2019-04-22T05:34:40.205Z,46.30
2019-04-22T05:37:01.260Z,45.83
2019-04-22T05:39:28.531Z,45.90
2019-04-22T05:42:03.416Z,45.50
2019-04-22T05:44:39.501Z,45.73
2019-04-22T05:47:04.761Z,45.47
2019-04-22T05:49:47.763Z,45.23
2019-04-22T05:52:11.159Z,45.07
2019-04-22T05:54:43.784Z,45.10
2019-04-22T05:57:14.465Z,44.83
2019-04-22T05:59:50.332Z,44.93
2019-04-22T06:04:54.972Z,45.03
2019-04-22T06:07:13.848Z,44.77
2019-04-22T06:09:49.234Z,46.57
2019-04-22T06:12:17.377Z,44.27
2019-04-22T06:14:53.822Z,45.77
2019-04-22T06:17:32.207Z,45.00
2019-04-22T06:20:04.250Z,44.33
2019-04-22T06:22:44.934Z,44.93
2019-04-22T06:27:38.672Z,44.03
2019-04-22T06:30:09.768Z,45.30
2019-04-22T06:32:53.797Z,45.20
2019-04-22T06:35:22.182Z,45.67
2019-04-22T06:37:55.307Z,45.33
2019-04-22T06:40:24.885Z,45.30
2019-04-22T06:42:52.375Z,45.33
2019-04-22T06:45:18.985Z,45.80
2019-04-22T06:48:00.415Z,45.57
2019-04-22T06:50:28.067Z,45.90
2019-04-22T06:52:55.200Z,46.30
2019-04-22T06:55:29.883Z,45.43
2019-04-22T06:58:01.053Z,46.50
2019-04-22T07:00:32.403Z,46.00
2019-04-22T07:03:25.434Z,45.57
2019-04-22T07:05:37.663Z,45.67
2019-04-22T07:08:27.491Z,45.63
2019-04-22T07:10:43.045Z,46.13
2019-04-22T07:13:10.640Z,46.43
2019-04-22T07:15:55.206Z,46.37
2019-04-22T07:18:20.935Z,44.27
2019-04-22T07:23:21.540Z,45.07
2019-04-22T07:25:45.187Z,45.80
2019-04-22T07:28:20.474Z,45.77
2019-04-22T07:33:48.532Z,46.90
2019-04-22T07:36:47.154Z,47.53
2019-04-22T07:38:45.552Z,47.27
2019-04-22T07:41:21.867Z,47.57
2019-04-22T07:44:07.353Z,47.80
2019-04-22T07:46:19.839Z,47.00
2019-04-22T07:51:27.056Z,47.63
2019-04-22T07:53:56.052Z,47.53
2019-04-22T07:56:29.336Z,47.77
2019-04-22T07:59:07.656Z,47.07
2019-04-22T08:01:32.406Z,46.63
2019-04-22T08:06:43.800Z,46.10
2019-04-22T08:09:15.147Z,46.67
2019-04-22T08:11:51.588Z,47.77
2019-04-22T08:14:14.665Z,47.83
2019-04-22T08:19:24.941Z,46.77
2019-04-22T08:21:55.162Z,47.97
2019-04-22T08:24:22.569Z,49.73
2019-04-22T08:26:53.244Z,50.73
2019-04-22T08:32:01.196Z,51.00
2019-04-22T08:34:29.894Z,50.73
2019-04-22T08:39:35.841Z,51.20
2019-04-22T08:42:08.321Z,50.73
2019-04-22T08:45:02.546Z,52.93
2019-04-22T08:47:21.784Z,51.23
2019-04-22T08:49:50.896Z,50.63
2019-04-22T08:52:16.491Z,50.77
2019-04-22T08:54:50.812Z,49.77
2019-04-22T08:57:24.197Z,50.73
2019-04-22T08:59:48.647Z,49.90
2019-04-22T09:02:31.866Z,51.37
2019-04-22T09:04:48.037Z,50.60
2019-04-22T09:07:29.831Z,50.33
2019-04-22T09:09:55.771Z,50.00
2019-04-22T09:12:50.000Z,49.60
2019-04-22T09:14:55.079Z,50.17
2019-04-22T09:17:34.967Z,49.53
2019-04-22T09:20:06.484Z,48.07
2019-04-22T09:22:56.944Z,49.03
2019-04-22T09:25:08.124Z,49.57
2019-04-22T09:27:42.973Z,48.77
2019-04-22T09:30:26.027Z,50.47
2019-04-22T09:33:08.218Z,49.50
2019-04-22T09:35:16.194Z,49.83
2019-04-22T09:38:00.257Z,49.93
2019-04-22T09:40:22.335Z,49.87
2019-04-22T09:45:22.981Z,49.73
2019-04-22T09:48:00.866Z,48.63
2019-04-22T09:50:29.366Z,50.53
2019-04-22T09:53:02.049Z,50.70
2019-04-22T09:55:34.588Z,49.33
2019-04-22T09:58:09.636Z,50.00
2019-04-22T10:00:43.055Z,49.70
2019-04-22T10:03:16.644Z,50.67
2019-04-22T10:05:52.490Z,50.63
2019-04-22T10:08:24.444Z,49.30
2019-04-22T10:10:48.982Z,48.13
2019-04-22T10:13:32.278Z,49.37
2019-04-22T10:15:54.834Z,49.30
2019-04-22T10:18:26.178Z,48.57
2019-04-22T10:20:54.154Z,49.03
2019-04-22T10:23:25.363Z,49.03
2019-04-22T10:25:59.121Z,48.93
2019-04-22T10:28:35.256Z,48.97
2019-04-22T10:31:21.802Z,49.03
2019-04-22T10:33:26.948Z,49.70
2019-04-22T10:35:39.444Z,49.80
2019-04-22T10:38:10.330Z,50.27
2019-04-22T10:40:40.753Z,51.47
2019-04-22T10:43:11.504Z,50.30
2019-04-22T10:45:41.980Z,49.53
2019-04-22T10:48:12.509Z,49.20
2019-04-22T10:50:48.715Z,50.03
2019-04-22T10:53:21.543Z,48.83
2019-04-22T10:55:51.898Z,50.83
2019-04-22T10:58:23.012Z,48.93
2019-04-22T11:00:54.406Z,56.53
2019-04-22T11:03:26.548Z,53.30
2019-04-22T11:05:57.071Z,52.07
2019-04-22T11:08:35.006Z,51.57
2019-04-22T11:11:12.351Z,52.30
2019-04-22T11:13:29.646Z,53.00
2019-04-22T11:16:00.572Z,52.60
2019-04-22T11:18:31.659Z,54.27
2019-04-22T11:21:01.951Z,51.67
2019-04-22T11:23:32.406Z,53.40
2019-04-22T11:26:03.790Z,53.20
2019-04-22T11:28:33.911Z,54.20
2019-04-22T11:31:03.990Z,52.83
2019-04-22T11:33:34.523Z,52.40
2019-04-22T11:36:05.963Z,52.17
2019-04-22T11:38:37.744Z,52.63
2019-04-22T11:41:09.140Z,52.20
2019-04-22T11:43:39.139Z,53.03
2019-04-22T11:46:09.423Z,52.60
2019-04-22T11:48:42.221Z,52.83
2019-04-22T11:51:13.831Z,53.50
2019-04-22T11:53:45.086Z,52.53
2019-04-22T11:56:14.785Z,52.83
2019-04-22T11:58:44.575Z,52.63
2019-04-22T12:01:15.049Z,53.47
2019-04-22T12:03:46.287Z,53.87
2019-04-22T12:06:17.797Z,53.43
2019-04-22T12:08:48.001Z,52.93
2019-04-22T12:11:18.651Z,54.57
2019-04-22T12:13:48.509Z,53.30
2019-04-22T12:16:19.468Z,53.57
2019-04-22T12:18:49.364Z,53.17
2019-04-22T12:21:19.515Z,52.97
2019-04-22T12:23:50.814Z,55.20
2019-04-22T12:26:24.637Z,54.73
2019-04-22T12:28:55.082Z,52.53
2019-04-22T12:31:25.199Z,53.23
2019-04-22T12:33:55.145Z,55.90
2019-04-22T12:36:26.872Z,55.20
2019-04-22T12:38:57.811Z,54.67
2019-04-22T12:41:31.199Z,55.10
2019-04-22T12:44:03.298Z,54.67
2019-04-22T12:46:36.510Z,54.57
2019-04-22T12:49:08.009Z,56.30
2019-04-22T12:51:40.975Z,56.00
2019-04-22T12:54:11.049Z,57.63
2019-04-22T12:56:41.930Z,57.67
2019-04-22T12:59:11.855Z,56.67
2019-04-22T13:01:44.767Z,56.80
2019-04-22T13:04:21.240Z,56.03
2019-04-22T13:06:53.441Z,55.83
2019-04-22T13:09:23.315Z,57.37
2019-04-22T13:11:53.068Z,56.63
2019-04-22T13:14:23.183Z,56.90
2019-04-22T13:16:53.609Z,55.97
2019-04-22T13:19:32.063Z,56.57
2019-04-22T13:22:02.923Z,57.07
2019-04-22T13:24:34.148Z,56.17
2019-04-22T13:27:04.057Z,57.03
2019-04-22T13:29:37.224Z,56.37
2019-04-22T13:32:08.824Z,57.97
2019-04-22T13:34:49.434Z,56.97
2019-04-22T13:37:14.823Z,56.77
2019-04-22T13:39:45.338Z,57.27
2019-04-22T13:42:19.364Z,57.83
2019-04-22T13:44:46.509Z,57.17
2019-04-22T13:47:34.973Z,55.93
2019-04-22T13:50:25.968Z,56.57
2019-04-22T13:52:53.593Z,57.10
2019-04-22T13:55:40.838Z,56.43
2019-04-22T13:57:47.456Z,55.77
2019-04-22T14:00:09.541Z,54.90
2019-04-22T14:02:40.353Z,55.20
2019-04-22T14:05:11.059Z,54.30
2019-04-22T14:07:43.092Z,54.57
2019-04-22T14:10:18.557Z,57.43
2019-04-22T14:12:48.770Z,56.83
2019-04-22T14:15:22.386Z,53.93
2019-04-22T14:17:52.793Z,53.83
2019-04-22T14:20:25.657Z,54.90
2019-04-22T14:22:56.730Z,55.47
2019-04-22T14:25:26.558Z,55.50
2019-04-22T14:28:01.826Z,55.80
2019-04-22T14:30:28.650Z,56.83
2019-04-22T14:33:00.048Z,56.60
2019-04-22T14:35:31.266Z,54.33
2019-04-22T14:38:01.477Z,55.57
2019-04-22T14:40:36.147Z,57.83
2019-04-22T14:43:31.672Z,55.90
2019-04-22T14:46:17.880Z,55.10
2019-04-22T14:48:45.020Z,54.77
2019-04-22T14:51:00.864Z,55.35
2019-04-22T14:53:35.552Z,55.50
2019-04-22T14:55:50.506Z,56.80
2019-04-22T14:58:20.351Z,54.65
2019-04-22T15:00:51.912Z,55.03
2019-04-22T15:03:23.838Z,54.93
2019-04-22T15:05:54.509Z,52.95
2019-04-22T15:08:24.827Z,54.42
2019-04-22T15:11:00.512Z,53.25
2019-04-22T15:13:31.597Z,53.65
2019-04-22T15:16:03.355Z,54.67
2019-04-22T15:18:51.771Z,53.08
2019-04-22T15:21:27.022Z,54.00
2019-04-22T15:24:00.507Z,53.58
2019-04-22T15:26:30.759Z,52.88
2019-04-22T15:29:00.495Z,53.55
2019-04-22T15:31:31.527Z,54.83
2019-04-22T15:34:02.624Z,52.70
2019-04-22T15:36:33.945Z,51.63
2019-04-22T15:39:07.316Z,52.40
2019-04-22T15:41:36.932Z,53.25
2019-04-22T15:44:07.974Z,54.27
2019-04-22T15:46:39.027Z,51.63
2019-04-22T15:49:09.913Z,53.17
2019-04-22T15:51:40.861Z,52.00
2019-04-22T15:54:11.821Z,51.77
2019-04-22T15:56:41.650Z,50.57
2019-04-22T15:59:31.165Z,50.10
2019-04-22T16:01:43.360Z,49.53
2019-04-22T16:04:16.954Z,49.53
2019-04-22T16:06:47.254Z,49.73
2019-04-22T16:09:17.381Z,48.53
2019-04-22T16:11:47.733Z,48.83
2019-04-22T16:14:23.979Z,48.50
2019-04-22T16:16:50.378Z,49.63
2019-04-22T16:19:23.262Z,49.63
2019-04-22T16:21:59.309Z,49.63
2019-04-22T16:24:27.735Z,49.00
2019-04-22T16:27:00.424Z,48.47
2019-04-22T16:29:31.560Z,48.63
2019-04-22T16:32:01.518Z,48.30
2019-04-22T16:34:31.313Z,48.70
2019-04-22T16:37:01.228Z,48.73
2019-04-22T16:39:31.188Z,47.13
2019-04-22T16:42:02.495Z,52.73
2019-04-22T16:44:34.526Z,47.57
2019-04-22T16:47:08.020Z,48.20
2019-04-22T16:49:39.263Z,48.00
2019-04-22T16:52:10.081Z,47.83
2019-04-22T16:54:42.093Z,47.20
2019-04-22T16:57:12.561Z,47.53
2019-04-22T16:59:42.799Z,47.90
2019-04-22T17:02:28.535Z,47.67
2019-04-22T17:05:07.384Z,48.37
2019-04-22T17:07:40.230Z,47.50
2019-04-22T17:10:11.037Z,47.67
2019-04-22T17:12:50.791Z,48.50
2019-04-22T17:15:16.033Z,48.00
2019-04-22T17:17:47.383Z,48.47
2019-04-22T17:20:17.591Z,48.23
2019-04-22T17:22:47.542Z,47.90
2019-04-22T17:25:18.296Z,47.10
2019-04-22T17:27:49.761Z,47.30
2019-04-22T17:30:24.355Z,47.30
2019-04-22T17:32:54.821Z,47.70
2019-04-22T17:35:26.136Z,46.80
2019-04-22T17:38:08.765Z,46.27
2019-04-22T17:40:44.963Z,46.93
2019-04-22T17:43:29.833Z,47.07
2019-04-22T17:46:07.221Z,46.77
2019-04-22T17:48:48.894Z,45.07
2019-04-22T17:51:29.817Z,46.40
2019-04-22T17:53:55.025Z,45.97
2019-04-22T17:56:27.827Z,45.40
2019-04-22T17:58:57.398Z,46.13
2019-04-22T18:01:30.977Z,46.47
2019-04-22T18:03:48.559Z,45.73
2019-04-22T18:06:42.889Z,44.50
2019-04-22T18:09:01.499Z,46.23
2019-04-22T18:11:39.911Z,45.77
2019-04-22T18:14:25.942Z,46.43
2019-04-22T18:16:37.179Z,45.00
2019-04-22T18:19:10.013Z,45.57
2019-04-22T18:21:38.008Z,45.00
2019-04-22T18:24:04.657Z,45.23
2019-04-22T18:26:47.885Z,45.40
2019-04-22T18:29:17.728Z,44.97
2019-04-22T18:31:40.889Z,44.77
2019-04-22T18:34:10.253Z,45.27
2019-04-22T18:36:47.817Z,44.67
2019-04-22T18:39:28.595Z,45.57
2019-04-22T18:41:51.951Z,44.63
2019-04-22T18:44:27.147Z,45.07
2019-04-22T18:46:56.763Z,44.77
2019-04-22T18:49:36.044Z,45.20
2019-04-22T18:52:04.523Z,44.97
2019-04-22T18:54:43.893Z,44.83
2019-04-22T18:57:09.835Z,45.80
2019-04-22T18:59:28.825Z,45.57
2019-04-22T19:02:01.442Z,46.57
2019-04-22T19:04:39.702Z,46.10
2019-04-22T19:07:28.735Z,46.47
2019-04-22T19:09:58.244Z,46.40
2019-04-22T19:12:28.935Z,45.83
2019-04-22T19:14:58.931Z,45.47
2019-04-22T19:17:32.819Z,45.77
2019-04-22T19:20:02.980Z,45.40
2019-04-22T19:22:36.570Z,45.20
2019-04-22T19:24:54.997Z,46.83
2019-04-22T19:27:31.268Z,45.93
2019-04-22T19:30:14.256Z,45.67
2019-04-22T19:32:38.410Z,46.23
2019-04-22T19:35:04.990Z,46.27
2019-04-22T19:37:39.866Z,45.17
2019-04-22T19:40:15.075Z,45.67
2019-04-22T19:42:53.485Z,46.07
2019-04-22T19:45:17.599Z,46.40
2019-04-22T19:48:01.838Z,46.80
2019-04-22T19:50:27.356Z,47.30
2019-04-22T19:53:02.007Z,48.03
2019-04-22T19:55:32.570Z,46.60
2019-04-22T19:58:05.514Z,47.00
2019-04-22T20:00:36.193Z,47.53
2019-04-22T20:03:21.791Z,47.53
2019-04-22T20:05:47.903Z,47.63
2019-04-22T20:08:19.894Z,47.97
2019-04-22T20:10:52.628Z,48.33
2019-04-22T20:13:31.077Z,48.63
2019-04-22T20:15:49.070Z,50.33
2019-04-22T20:18:37.272Z,49.00
2019-04-22T20:20:58.596Z,49.73
2019-04-22T20:23:22.898Z,48.50
2019-04-22T20:25:51.149Z,51.60
2019-04-22T20:28:32.229Z,50.63
2019-04-22T20:31:02.684Z,49.73
2019-04-22T20:33:36.849Z,49.90
2019-04-22T20:36:25.287Z,49.57
2019-04-22T20:38:38.547Z,50.53
2019-04-22T20:41:05.642Z,50.90
2019-04-22T20:43:48.981Z,51.57
2019-04-22T20:46:15.206Z,50.77
2019-04-22T20:48:48.372Z,50.83
2019-04-22T20:51:14.036Z,50.43
2019-04-22T20:53:49.175Z,50.27
2019-04-22T20:56:14.798Z,52.47
2019-04-22T20:58:51.828Z,52.43
2019-04-22T21:01:21.056Z,51.70
2019-04-22T21:03:41.925Z,52.63
2019-04-22T21:06:23.145Z,52.03
2019-04-22T21:09:01.146Z,52.10
2019-04-22T21:11:30.014Z,52.67
2019-04-22T21:14:01.317Z,53.10
2019-04-22T21:16:34.255Z,53.07
2019-04-22T21:18:59.015Z,51.87
2019-04-22T21:21:37.999Z,53.43
2019-04-22T21:24:25.072Z,52.47
2019-04-22T21:26:57.081Z,53.53
2019-04-22T21:29:29.503Z,53.93
2019-04-22T21:32:01.569Z,53.60
2019-04-22T21:34:40.783Z,54.03
2019-04-22T21:37:12.211Z,53.27
2019-04-22T21:39:33.405Z,53.07
2019-04-22T21:42:08.572Z,53.23
2019-04-22T21:44:41.078Z,54.10
2019-04-22T21:47:14.503Z,54.27
2019-04-22T21:49:40.493Z,53.57
2019-04-22T21:52:17.690Z,54.60
2019-04-22T21:54:57.397Z,54.00
2019-04-22T21:57:24.127Z,53.83
2019-04-22T21:59:53.296Z,54.10
2019-04-22T22:02:27.835Z,54.93
2019-04-22T22:04:58.957Z,55.50
2019-04-22T22:07:17.544Z,54.77
2019-04-22T22:10:05.826Z,55.17
2019-04-22T22:12:37.827Z,56.03
2019-04-22T22:15:06.897Z,55.57
2019-04-22T22:17:35.460Z,54.90
2019-04-22T22:20:05.877Z,55.63
2019-04-22T22:23:00.004Z,54.63
2019-04-22T22:25:17.816Z,54.27
2019-04-22T22:27:40.915Z,53.70
2019-04-22T22:30:38.820Z,54.20
2019-04-22T22:32:47.488Z,55.37
2019-04-22T22:35:20.641Z,55.37
2019-04-22T22:37:51.269Z,55.03
2019-04-22T22:40:09.223Z,55.27
2019-04-22T22:42:38.647Z,54.80
2019-04-22T22:45:18.203Z,54.23
2019-04-22T22:48:05.716Z,54.37
2019-04-22T22:50:30.285Z,54.70
2019-04-22T22:55:33.231Z,53.90
2019-04-22T22:58:13.151Z,53.63
2019-04-22T23:00:35.330Z,53.77
2019-04-22T23:05:44.948Z,53.40
2019-04-22T23:08:22.834Z,51.60
2019-04-22T23:10:57.363Z,52.50
2019-04-22T23:13:21.798Z,54.60
2019-04-22T23:15:48.456Z,55.97
2019-04-22T23:18:01.866Z,54.30
2019-04-22T23:20:37.578Z,54.43
2019-04-22T23:23:21.868Z,53.40
2019-04-22T23:26:03.872Z,53.80
2019-04-22T23:28:34.921Z,56.23
2019-04-22T23:31:09.460Z,55.97
2019-04-22T23:33:49.459Z,55.70
2019-04-22T23:36:15.031Z,56.43
2019-04-22T23:38:59.220Z,54.87
2019-04-22T23:41:47.137Z,54.33
2019-04-22T23:44:13.862Z,53.80
2019-04-22T23:46:47.982Z,52.90
2019-04-22T23:49:18.005Z,52.77
2019-04-22T23:52:00.996Z,52.27
2019-04-22T23:54:35.777Z,52.77
2019-04-22T23:56:57.002Z,53.07
